Time;durP1;ratioP1;P1;durP2;ratioP2;P2;SDS_P1;SDS_P2;PMS_P1;PMS_P2;Temp;Humidity;BMP_temperature;BMP_pressure;BME280_temperature;BME280_humidity;BME280_pressure;Samples;Min_cycle;Max_cycle;Signal;HPM_P1;HPM_P2
2023/11/23 00:00:06;;;;;;;30.13;18.55;;;0.30;99.90;;;;;;6265549;28;20421;-80
2023/11/23 00:03:09;;;;;;;29.77;18.73;;;0.40;99.90;;;;;;6262368;28;20055;-80
2023/11/23 00:06:10;;;;;;;26.50;19.10;;;0.50;99.90;;;;;;6258495;28;20048;-80
2023/11/23 00:09:13;;;;;;;27.77;18.15;;;0.60;99.90;;;;;;6254970;28;20055;-80
2023/11/23 00:12:14;;;;;;;25.38;19.73;;;0.70;99.90;;;;;;6262631;28;20152;-80
2023/11/23 00:15:17;;;;;;;25.58;17.80;;;0.80;99.90;;;;;;6255521;28;20041;-81
2023/11/23 00:18:19;;;;;;;25.70;18.90;;;0.90;99.90;;;;;;6250597;28;20042;-79
2023/11/23 00:21:21;;;;;;;28.98;19.00;;;1.00;99.90;;;;;;6263534;28;20048;-80
2023/11/23 00:24:23;;;;;;;25.52;17.42;;;1.10;99.90;;;;;;6256641;28;20045;-79
2023/11/23 00:27:25;;;;;;;32.42;19.35;;;1.20;99.90;;;;;;6258930;28;20387;-79
2023/11/23 00:30:28;;;;;;;25.20;18.13;;;1.20;99.90;;;;;;6263453;28;20034;-79
2023/11/23 00:33:30;;;;;;;28.77;17.30;;;1.30;99.90;;;;;;6253865;28;20056;-80
2023/11/23 00:36:32;;;;;;;24.55;16.90;;;1.30;99.90;;;;;;6262188;28;20192;-80
2023/11/23 00:39:34;;;;;;;21.25;16.55;;;1.40;99.90;;;;;;6254985;28;20059;-79
2023/11/23 00:42:35;;;;;;;23.83;16.60;;;1.40;99.90;;;;;;6273737;28;20055;-81
2023/11/23 00:45:38;;;;;;;26.55;19.15;;;1.50;99.90;;;;;;6274795;28;20048;-81
2023/11/23 00:48:40;;;;;;;25.90;17.55;;;1.50;99.90;;;;;;6253710;28;20052;-80
2023/11/23 00:51:43;;;;;;;26.13;18.20;;;1.50;99.90;;;;;;6260698;28;20052;-80
2023/11/23 00:54:47;;;;;;;26.30;17.63;;;1.60;99.90;;;;;;6251298;28;20127;-79
2023/11/23 00:57:48;;;;;;;29.05;17.63;;;1.60;99.90;;;;;;6250520;28;20521;-79
2023/11/23 01:00:51;;;;;;;27.65;18.55;;;1.70;99.90;;;;;;6250651;28;20037;-80
2023/11/23 01:03:53;;;;;;;25.73;20.77;;;1.70;99.90;;;;;;6251024;28;20048;-79
2023/11/23 01:06:55;;;;;;;25.73;17.33;;;1.70;99.90;;;;;;6249971;28;20045;-80
2023/11/23 01:09:57;;;;;;;22.27;16.08;;;1.80;99.90;;;;;;6250083;28;20044;-80
2023/11/23 01:12:59;;;;;;;24.50;16.05;;;1.70;99.90;;;;;;6250553;28;20042;-79
2023/11/23 01:16:02;;;;;;;24.13;15.95;;;1.80;99.90;;;;;;6250442;28;20064;-80
2023/11/23 01:19:04;;;;;;;19.25;15.50;;;1.80;99.90;;;;;;6257490;28;20048;-79
2023/11/23 01:22:06;;;;;;;22.73;15.75;;;1.80;99.90;;;;;;6255160;28;20048;-79
2023/11/23 01:25:08;;;;;;;24.63;15.45;;;1.80;99.90;;;;;;6251775;28;20045;-80
2023/11/23 01:28:10;;;;;;;21.13;15.50;;;1.70;99.90;;;;;;6250257;28;20049;-79
2023/11/23 01:31:13;;;;;;;19.33;14.48;;;1.70;99.90;;;;;;6249668;28;20048;-79
2023/11/23 01:34:15;;;;;;;21.63;15.07;;;1.50;99.90;;;;;;6257811;28;20387;-80
2023/11/23 01:37:16;;;;;;;21.75;14.45;;;1.50;99.90;;;;;;6264802;28;20049;-80
2023/11/23 01:40:19;;;;;;;22.88;15.43;;;1.40;99.90;;;;;;6251095;28;20049;-79
2023/11/23 01:43:21;;;;;;;19.85;13.80;;;1.40;99.90;;;;;;6249212;28;20042;-80
2023/11/23 01:46:24;;;;;;;18.55;13.98;;;1.30;99.90;;;;;;6248556;28;20052;-79
2023/11/23 01:49:27;;;;;;;20.48;14.32;;;1.30;99.90;;;;;;6248963;28;20052;-80
2023/11/23 01:52:29;;;;;;;19.40;13.88;;;1.20;99.90;;;;;;6241057;28;20049;-79
2023/11/23 01:55:32;;;;;;;22.73;17.00;;;1.30;99.90;;;;;;6249576;28;20060;-79
2023/11/23 01:58:33;;;;;;;25.92;15.90;;;1.30;99.90;;;;;;6247565;28;20056;-79
2023/11/23 02:01:36;;;;;;;19.65;15.10;;;1.30;99.90;;;;;;6247309;28;20502;-79
2023/11/23 02:04:38;;;;;;;17.60;13.65;;;1.20;99.90;;;;;;6248006;28;20431;-79
2023/11/23 02:07:40;;;;;;;22.50;14.32;;;1.20;99.90;;;;;;6248302;28;20049;-79
2023/11/23 02:10:41;;;;;;;23.80;14.40;;;1.10;99.90;;;;;;6256563;28;20037;-79
2023/11/23 02:13:43;;;;;;;23.45;15.18;;;1.10;99.90;;;;;;6248134;28;20045;-79
2023/11/23 02:16:46;;;;;;;25.17;15.43;;;1.00;99.90;;;;;;6248445;28;20394;-79
2023/11/23 02:19:49;;;;;;;23.25;15.77;;;1.00;99.90;;;;;;6247882;28;20049;-79
2023/11/23 02:22:51;;;;;;;20.63;14.00;;;0.90;99.90;;;;;;6248565;28;20048;-79
2023/11/23 02:25:54;;;;;;;20.63;15.10;;;0.90;99.90;;;;;;6255789;28;20048;-79
2023/11/23 02:28:57;;;;;;;24.60;15.50;;;0.90;99.90;;;;;;6248277;28;20041;-79
2023/11/23 02:31:58;;;;;;;20.95;14.90;;;0.80;99.90;;;;;;6248466;28;20128;-79
2023/11/23 02:35:00;;;;;;;21.00;15.38;;;0.80;99.90;;;;;;6247952;28;20041;-79
2023/11/23 02:38:02;;;;;;;22.17;15.00;;;0.80;99.90;;;;;;6247332;28;20045;-79
2023/11/23 02:41:05;;;;;;;21.73;15.50;;;0.70;99.90;;;;;;6247736;28;20068;-79
2023/11/23 02:44:08;;;;;;;17.65;14.20;;;0.70;99.90;;;;;;6253244;28;20044;-79
2023/11/23 02:47:09;;;;;;;28.98;17.40;;;0.70;99.90;;;;;;6249903;28;20525;-79
2023/11/23 02:50:12;;;;;;;26.95;18.77;;;0.60;99.90;;;;;;6247395;28;20391;-79
2023/11/23 02:53:27;;;;;;;23.55;17.08;;;0.60;99.90;;;;;;6247671;28;20518;-79
2023/11/23 02:56:30;;;;;;;22.63;16.63;;;0.60;99.90;;;;;;6246771;28;20057;-79
2023/11/23 02:59:32;;;;;;;25.08;18.05;;;0.60;99.90;;;;;;6240254;28;20049;-79
2023/11/23 03:02:34;;;;;;;24.67;18.17;;;0.60;99.90;;;;;;6248330;28;20045;-79
2023/11/23 03:05:35;;;;;;;26.48;19.75;;;0.60;99.90;;;;;;6247710;28;20054;-80
2023/11/23 03:08:37;;;;;;;21.77;16.33;;;0.60;99.90;;;;;;6255528;28;20049;-79
2023/11/23 03:11:41;;;;;;;21.23;17.35;;;0.50;99.90;;;;;;6247437;28;20060;-79
2023/11/23 03:14:42;;;;;;;27.77;18.35;;;0.50;99.90;;;;;;6247045;28;20056;-79
2023/11/23 03:17:44;;;;;;;28.48;18.90;;;0.50;99.90;;;;;;6247149;28;20128;-79
2023/11/23 03:20:46;;;;;;;28.20;18.33;;;0.50;99.90;;;;;;6255024;28;20048;-79
2023/11/23 03:23:48;;;;;;;29.70;17.42;;;0.50;99.90;;;;;;6247569;28;20465;-78
2023/11/23 03:26:51;;;;;;;24.98;17.85;;;0.50;99.90;;;;;;6246174;28;20466;-79
2023/11/23 03:29:53;;;;;;;23.42;17.67;;;0.50;99.90;;;;;;6246871;28;20049;-79
2023/11/23 03:32:54;;;;;;;25.63;18.45;;;0.50;99.90;;;;;;6246165;28;20529;-79
2023/11/23 03:35:56;;;;;;;27.77;18.25;;;0.50;99.90;;;;;;6247320;28;20053;-79
2023/11/23 03:38:58;;;;;;;21.15;17.10;;;0.50;99.90;;;;;;6255069;28;20053;-79
2023/11/23 03:42:01;;;;;;;22.80;17.10;;;0.50;99.90;;;;;;6246825;28;20053;-79
2023/11/23 03:45:04;;;;;;;26.48;17.85;;;0.40;99.90;;;;;;6246713;28;20045;-79
2023/11/23 03:48:05;;;;;;;26.35;17.55;;;0.50;99.90;;;;;;6246536;28;20045;-79
2023/11/23 03:51:11;;;;;;;30.83;17.98;;;0.40;99.90;;;;;;6246782;28;20045;-79
2023/11/23 03:54:14;;;;;;;24.73;18.58;;;0.40;99.90;;;;;;6246540;28;20414;-79
2023/11/23 03:57:17;;;;;;;31.45;19.55;;;0.40;99.90;;;;;;6251843;28;20406;-79
2023/11/23 04:00:21;;;;;;;26.80;18.02;;;0.40;99.90;;;;;;6249174;28;20045;-79
2023/11/23 04:03:22;;;;;;;27.15;19.48;;;0.40;99.90;;;;;;6246692;28;20037;-79
2023/11/23 04:06:24;;;;;;;24.65;18.27;;;0.40;99.90;;;;;;6245589;28;20044;-79
2023/11/23 04:09:26;;;;;;;32.80;21.85;;;0.40;99.90;;;;;;6247453;28;20048;-79
2023/11/23 04:12:29;;;;;;;26.55;20.88;;;0.30;99.90;;;;;;6254495;28;20041;-79
2023/11/23 04:15:31;;;;;;;27.50;20.13;;;0.30;99.90;;;;;;6243652;28;20056;-79
2023/11/23 04:18:33;;;;;;;25.75;19.77;;;0.30;99.90;;;;;;6255647;28;20068;-79
2023/11/23 04:21:34;;;;;;;26.45;18.63;;;0.30;99.90;;;;;;6247138;28;20042;-79
2023/11/23 04:24:38;;;;;;;41.33;34.15;;;0.30;99.90;;;;;;6257641;28;20056;-79
2023/11/23 04:27:42;;;;;;;28.58;18.45;;;0.30;99.90;;;;;;6243632;28;20061;-79
2023/11/23 04:30:43;;;;;;;30.58;20.13;;;0.30;99.90;;;;;;6250961;28;20047;-79
2023/11/23 04:33:45;;;;;;;29.75;18.90;;;0.30;99.90;;;;;;6265205;28;20053;-79
2023/11/23 04:36:47;;;;;;;27.08;19.67;;;0.30;99.90;;;;;;6258126;28;20047;-79
2023/11/23 04:39:48;;;;;;;26.23;19.83;;;0.30;99.90;;;;;;6251431;28;20065;-79
2023/11/23 04:42:51;;;;;;;28.88;19.85;;;0.30;99.90;;;;;;6257103;28;20041;-79
2023/11/23 04:45:53;;;;;;;28.55;20.23;;;0.30;99.90;;;;;;6255072;28;20422;-79
2023/11/23 04:48:55;;;;;;;28.70;20.20;;;0.30;99.90;;;;;;6263722;28;20061;-78
2023/11/23 04:51:57;;;;;;;26.73;17.92;;;0.30;99.90;;;;;;6274130;28;20045;-78
2023/11/23 04:54:59;;;;;;;30.45;18.60;;;0.30;99.90;;;;;;6267704;28;20395;-79
2023/11/23 04:58:02;;;;;;;30.13;18.55;;;0.30;99.90;;;;;;6273190;28;20045;-78
2023/11/23 05:01:04;;;;;;;24.98;18.38;;;0.30;99.90;;;;;;6266876;28;20053;-78
2023/11/23 05:04:06;;;;;;;29.70;18.63;;;0.30;99.90;;;;;;6265604;28;20044;-78
2023/11/23 05:07:08;;;;;;;24.20;17.90;;;0.30;99.90;;;;;;6269093;28;20048;-78
2023/11/23 05:10:10;;;;;;;26.38;18.95;;;0.30;99.90;;;;;;6268928;28;20447;-79
2023/11/23 05:13:13;;;;;;;27.10;17.25;;;0.30;99.90;;;;;;6264518;28;20045;-79
2023/11/23 05:16:15;;;;;;;22.00;16.20;;;0.30;99.90;;;;;;6260814;28;20050;-78
2023/11/23 05:19:19;;;;;;;26.50;17.58;;;0.30;99.90;;;;;;6253290;28;20037;-79
2023/11/23 05:22:21;;;;;;;25.25;17.55;;;0.30;99.90;;;;;;6273078;28;20414;-79
2023/11/23 05:25:23;;;;;;;30.10;18.85;;;0.30;99.90;;;;;;6267465;28;20522;-79
2023/11/23 05:28:26;;;;;;;25.55;18.08;;;0.30;99.90;;;;;;6247927;28;20045;-79
2023/11/23 05:31:28;;;;;;;210.65;127.25;;;0.30;99.90;;;;;;6262848;28;20044;-78
2023/11/23 05:34:30;;;;;;;58.03;45.80;;;0.30;99.90;;;;;;6264738;28;20060;-79
2023/11/23 05:37:31;;;;;;;27.50;19.25;;;0.30;99.90;;;;;;6264313;28;20056;-79
2023/11/23 05:40:33;;;;;;;32.25;26.17;;;0.30;99.90;;;;;;6272658;28;20052;-79
2023/11/23 05:43:36;;;;;;;32.03;23.90;;;0.20;99.90;;;;;;6258190;28;20046;-79
2023/11/23 05:46:38;;;;;;;33.13;23.15;;;0.20;99.90;;;;;;6271277;28;20052;-79
2023/11/23 05:49:40;;;;;;;32.20;23.58;;;0.30;99.90;;;;;;6272043;28;20136;-79
2023/11/23 05:52:43;;;;;;;30.77;18.95;;;0.30;99.90;;;;;;6256027;28;20049;-79
2023/11/23 05:55:45;;;;;;;32.55;23.02;;;0.40;99.90;;;;;;6272165;28;20075;-79
2023/11/23 05:58:48;;;;;;;31.58;20.60;;;0.50;99.90;;;;;;6247994;28;20045;-79
2023/11/23 06:01:50;;;;;;;30.80;20.00;;;0.60;99.90;;;;;;6255842;28;20072;-78
2023/11/23 06:04:52;;;;;;;31.80;20.00;;;0.70;99.90;;;;;;6272398;28;20068;-79
2023/11/23 06:07:53;;;;;;;25.33;17.75;;;0.80;99.90;;;;;;6260734;28;20080;-78
2023/11/23 06:10:55;;;;;;;27.00;16.95;;;0.90;99.90;;;;;;6257935;28;20052;-79
2023/11/23 06:13:58;;;;;;;31.85;20.45;;;1.00;99.90;;;;;;6253537;28;20052;-78
2023/11/23 06:17:00;;;;;;;28.35;18.90;;;1.00;99.90;;;;;;6247331;28;20057;-78
2023/11/23 06:20:03;;;;;;;23.92;16.58;;;1.10;99.90;;;;;;6247126;28;20050;-78
2023/11/23 06:23:05;;;;;;;26.23;16.75;;;1.20;99.90;;;;;;6254318;28;20456;-78
2023/11/23 06:26:10;;;;;;;23.92;14.98;;;1.30;99.90;;;;;;6259891;28;20049;-79
2023/11/23 06:29:13;;;;;;;20.80;16.35;;;1.30;99.90;;;;;;6250988;28;20041;-78
2023/11/23 06:32:15;;;;;;;17.65;12.43;;;1.40;99.90;;;;;;6251235;28;20099;-78
2023/11/23 06:35:17;;;;;;;21.67;15.30;;;1.40;99.90;;;;;;6251029;28;20045;-78
2023/11/23 06:38:19;;;;;;;18.65;14.55;;;1.50;99.90;;;;;;6249575;28;20037;-78
2023/11/23 06:41:21;;;;;;;21.48;16.10;;;1.50;99.90;;;;;;6246440;28;20641;-78
2023/11/23 06:44:25;;;;;;;21.05;15.50;;;1.60;99.90;;;;;;6246274;28;20052;-78
2023/11/23 06:47:28;;;;;;;24.60;15.70;;;1.60;99.90;;;;;;6253894;28;20055;-79
2023/11/23 06:50:30;;;;;;;26.50;18.77;;;1.60;99.90;;;;;;6246689;28;20049;-80
2023/11/23 06:53:32;;;;;;;18.83;15.30;;;1.60;99.90;;;;;;6248146;28;20049;-79
2023/11/23 06:56:34;;;;;;;23.80;17.13;;;1.70;99.90;;;;;;6247472;28;20399;-79
2023/11/23 06:59:37;;;;;;;18.33;14.65;;;1.70;99.90;;;;;;6247588;28;20426;-80
2023/11/23 07:02:39;;;;;;;22.08;14.02;;;1.70;99.90;;;;;;6245883;28;20065;-79
2023/11/23 07:05:40;;;;;;;18.73;13.38;;;1.70;99.90;;;;;;6246796;28;20049;-79
2023/11/23 07:08:42;;;;;;;24.42;17.17;;;1.80;99.90;;;;;;6246479;28;20053;-78
2023/11/23 07:11:44;;;;;;;20.95;16.08;;;1.90;99.90;;;;;;6247471;28;20146;-79
2023/11/23 07:14:48;;;;;;;20.65;16.58;;;1.90;99.90;;;;;;6238755;28;20068;-79
2023/11/23 07:17:49;;;;;;;24.92;16.33;;;2.00;99.90;;;;;;6254814;28;20045;-79
2023/11/23 07:20:53;;;;;;;24.83;17.15;;;2.10;99.90;;;;;;6255458;28;20046;-79
2023/11/23 07:23:54;;;;;;;31.05;18.35;;;2.20;99.90;;;;;;6247940;28;20048;-79
2023/11/23 07:26:56;;;;;;;23.30;16.65;;;2.20;99.90;;;;;;6246199;28;20064;-79
2023/11/23 07:29:59;;;;;;;27.38;17.45;;;2.30;99.90;;;;;;6247270;28;20050;-78
2023/11/23 07:33:01;;;;;;;22.55;17.40;;;2.30;99.90;;;;;;6247327;28;20053;-78
2023/11/23 07:36:03;;;;;;;24.42;17.48;;;2.40;99.90;;;;;;6247060;28;20529;-79
2023/11/23 07:39:07;;;;;;;26.33;16.92;;;2.50;99.90;;;;;;6245716;28;20419;-79
2023/11/23 07:42:09;;;;;;;27.38;16.50;;;2.50;99.90;;;;;;6254494;28;20056;-80
2023/11/23 07:45:12;;;;;;;24.80;17.10;;;2.60;99.90;;;;;;6246290;28;20076;-80
2023/11/23 07:48:14;;;;;;;22.00;16.30;;;2.70;99.90;;;;;;6213211;28;20065;-79
2023/11/23 07:51:16;;;;;;;24.23;17.45;;;2.70;99.90;;;;;;6259378;28;20051;-80
2023/11/23 07:54:18;;;;;;;26.88;17.77;;;2.80;99.90;;;;;;6246802;28;20048;-80
2023/11/23 07:57:20;;;;;;;25.65;15.75;;;2.90;99.90;;;;;;6246546;28;20387;-79
2023/11/23 08:00:23;;;;;;;23.38;14.38;;;3.00;99.90;;;;;;6252451;28;20057;-79
2023/11/23 08:03:25;;;;;;;21.80;16.00;;;3.00;99.90;;;;;;6251288;28;20441;-80
2023/11/23 08:06:27;;;;;;;27.50;16.73;;;3.10;99.90;;;;;;6244367;28;20049;-81
2023/11/23 08:09:28;;;;;;;19.80;15.68;;;3.20;99.90;;;;;;6250297;28;20050;-79
2023/11/23 08:12:32;;;;;;;22.45;15.25;;;3.20;99.90;;;;;;6250462;28;20045;-80
2023/11/23 08:15:35;;;;;;;18.88;14.40;;;3.30;99.90;;;;;;6249305;28;20049;-80
2023/11/23 08:18:36;;;;;;;21.85;15.48;;;3.40;99.90;;;;;;6250145;28;20050;-80
2023/11/23 08:21:39;;;;;;;18.27;14.13;;;3.40;99.90;;;;;;6248228;28;20051;-80
2023/11/23 08:24:41;;;;;;;21.92;13.77;;;3.50;99.90;;;;;;6250218;28;20041;-80
2023/11/23 08:27:43;;;;;;;27.20;15.88;;;3.50;99.90;;;;;;6249111;28;20048;-79
2023/11/23 08:30:47;;;;;;;18.10;14.10;;;3.60;99.90;;;;;;6249053;28;20038;-80
2023/11/23 08:33:49;;;;;;;18.45;14.95;;;3.60;99.90;;;;;;6245447;28;20053;-79
2023/11/23 08:36:52;;;;;;;14.57;11.10;;;3.70;99.90;;;;;;6252981;28;20056;-81
2023/11/23 08:39:55;;;;;;;18.23;13.23;;;3.80;99.90;;;;;;6251140;28;20049;-81
2023/11/23 08:42:57;;;;;;;16.83;11.98;;;3.80;99.90;;;;;;6257007;28;20130;-79
2023/11/23 08:46:00;;;;;;;21.30;12.82;;;3.80;99.90;;;;;;6252983;28;20049;-80
2023/11/23 08:49:02;;;;;;;15.63;12.05;;;3.90;99.90;;;;;;6259177;28;20048;-81
2023/11/23 08:52:04;;;;;;;17.27;11.32;;;3.90;99.90;;;;;;6252740;28;20057;-80
2023/11/23 08:55:08;;;;;;;14.30;11.18;;;4.00;99.90;;;;;;6251584;28;20060;-80
2023/11/23 08:58:10;;;;;;;16.77;10.90;;;4.10;99.90;;;;;;6251395;28;20042;-82
2023/11/23 09:01:14;;;;;;;16.70;10.63;;;4.10;99.90;;;;;;6260746;28;20045;-81
2023/11/23 09:04:16;;;;;;;16.10;11.25;;;4.20;99.90;;;;;;6253095;28;20045;-80
2023/11/23 09:07:20;;;;;;;21.13;15.40;;;4.20;99.90;;;;;;6245869;28;20048;-80
2023/11/23 09:10:23;;;;;;;18.27;12.18;;;4.30;99.90;;;;;;6249756;28;20126;-81
2023/11/23 09:13:25;;;;;;;28.75;18.83;;;4.40;99.90;;;;;;6254524;28;20044;-80
2023/11/23 09:16:28;;;;;;;46.22;33.92;;;4.50;99.90;;;;;;6243982;28;20528;-80
2023/11/23 09:19:30;;;;;;;10.70;8.38;;;4.60;99.90;;;;;;6251364;28;20064;-80
2023/11/23 09:22:33;;;;;;;10.57;8.20;;;4.70;99.90;;;;;;6262251;28;20056;-80
2023/11/23 09:25:35;;;;;;;13.18;10.45;;;4.70;99.90;;;;;;6260910;28;20541;-80
2023/11/23 09:28:37;;;;;;;9.68;7.78;;;4.80;99.90;;;;;;6249130;28;20054;-80
2023/11/23 09:31:40;;;;;;;9.50;8.20;;;4.80;99.90;;;;;;6251390;28;20049;-81
2023/11/23 09:34:41;;;;;;;11.50;7.03;;;4.80;99.90;;;;;;6250024;28;20517;-81
2023/11/23 09:37:44;;;;;;;8.50;6.93;;;4.90;99.90;;;;;;6250180;28;20053;-81
2023/11/23 09:40:45;;;;;;;7.43;5.68;;;5.00;99.90;;;;;;6250350;28;20045;-81
2023/11/23 09:43:48;;;;;;;9.23;6.60;;;5.00;99.90;;;;;;6261017;28;20482;-80
2023/11/23 09:46:52;;;;;;;6.32;5.65;;;5.00;99.90;;;;;;6260634;28;20041;-80
2023/11/23 09:49:54;;;;;;;9.90;5.80;;;5.10;99.90;;;;;;6257024;28;20049;-80
2023/11/23 09:52:57;;;;;;;9.63;6.35;;;5.10;99.90;;;;;;6266081;28;20080;-80
2023/11/23 09:56:01;;;;;;;8.40;7.18;;;5.10;99.90;;;;;;6260650;28;20060;-80
2023/11/23 09:59:03;;;;;;;7.25;6.18;;;5.10;99.90;;;;;;6273838;28;20052;-79
2023/11/23 10:02:09;;;;;;;6.18;4.90;;;5.20;99.90;;;;;;6261254;28;20068;-80
2023/11/23 10:05:14;;;;;;;9.10;4.50;;;5.20;99.90;;;;;;6262699;28;20045;-80
2023/11/23 10:08:17;;;;;;;6.75;5.93;;;5.30;99.90;;;;;;6254396;28;20052;-80
2023/11/23 10:11:19;;;;;;;6.03;5.03;;;5.30;99.90;;;;;;6255622;28;20046;-80
2023/11/23 10:14:21;;;;;;;6.90;5.30;;;5.30;99.90;;;;;;6250594;28;20033;-80
2023/11/23 10:17:24;;;;;;;6.55;4.55;;;5.40;99.90;;;;;;6253938;28;20045;-80
2023/11/23 10:20:26;;;;;;;7.55;5.07;;;5.40;99.90;;;;;;6254032;28;20052;-80
2023/11/23 10:23:28;;;;;;;8.15;5.38;;;5.40;99.90;;;;;;6250296;28;20558;-80
2023/11/23 10:26:30;;;;;;;6.03;4.88;;;5.50;99.90;;;;;;6251123;28;20121;-80
2023/11/23 10:29:32;;;;;;;9.43;5.95;;;5.50;99.90;;;;;;6257657;28;20049;-80
2023/11/23 10:32:36;;;;;;;7.40;6.65;;;5.60;99.90;;;;;;6258229;28;20057;-80
2023/11/23 10:35:42;;;;;;;6.75;5.28;;;5.60;99.90;;;;;;6250272;28;20041;-80
2023/11/23 10:38:43;;;;;;;7.05;5.22;;;5.70;99.90;;;;;;6257497;28;20136;-80
2023/11/23 10:41:46;;;;;;;5.50;4.90;;;5.70;99.90;;;;;;6250520;28;20053;-80
2023/11/23 10:44:48;;;;;;;7.55;5.18;;;5.70;99.90;;;;;;6249380;28;20055;-80
2023/11/23 10:47:54;;;;;;;6.45;4.93;;;5.70;99.90;;;;;;6250217;28;20430;-80
2023/11/23 10:50:57;;;;;;;5.57;4.70;;;5.80;99.90;;;;;;6249812;28;20045;-79
2023/11/23 10:53:59;;;;;;;8.25;4.85;;;5.80;99.90;;;;;;6267424;28;20048;-80
2023/11/23 10:57:04;;;;;;;5.63;5.05;;;5.80;99.90;;;;;;6256849;28;20041;-80
2023/11/23 11:00:09;;;;;;;6.82;5.50;;;5.80;99.90;;;;;;6264500;28;20045;-80
2023/11/23 11:03:13;;;;;;;5.93;5.07;;;5.80;99.90;;;;;;6251153;28;20709;-79
2023/11/23 11:06:18;;;;;;;5.55;5.05;;;5.80;99.90;;;;;;6254491;28;20050;-79
2023/11/23 11:09:25;;;;;;;7.07;4.88;;;5.90;99.90;;;;;;6259473;28;20052;-79
2023/11/23 11:12:36;;;;;;;7.28;5.28;;;5.90;99.90;;;;;;6269519;28;20084;-79
2023/11/23 11:15:48;;;;;;;7.25;5.03;;;5.90;99.90;;;;;;6262216;28;20045;-79
2023/11/23 11:18:52;;;;;;;11.25;7.82;;;6.00;99.90;;;;;;6255620;28;20531;-79
2023/11/23 11:22:00;;;;;;;6.60;5.05;;;6.00;99.90;;;;;;6257954;28;20045;-79
2023/11/23 11:25:01;;;;;;;7.88;6.43;;;6.00;99.90;;;;;;6251108;28;20525;-80
2023/11/23 11:28:08;;;;;;;5.75;4.70;;;6.00;99.90;;;;;;6247613;28;20073;-79
2023/11/23 11:31:13;;;;;;;6.97;5.27;;;6.10;99.90;;;;;;6255538;28;20135;-79
2023/11/23 11:34:20;;;;;;;9.43;6.32;;;6.10;99.90;;;;;;6255886;28;20131;-80
2023/11/23 11:37:22;;;;;;;73.73;52.47;;;6.20;99.90;;;;;;6259015;28;20045;-79
2023/11/23 11:40:24;;;;;;;13.95;10.35;;;6.20;99.90;;;;;;6256356;28;20056;-79
2023/11/23 11:43:26;;;;;;;86.40;57.78;;;6.20;99.90;;;;;;6260760;28;20537;-79
2023/11/23 11:46:28;;;;;;;11.93;9.80;;;6.10;99.90;;;;;;6258193;28;20048;-79
2023/11/23 11:49:32;;;;;;;8.40;6.53;;;6.10;99.90;;;;;;6251687;28;20128;-79
2023/11/23 11:52:36;;;;;;;8.27;6.97;;;6.10;99.90;;;;;;6260143;28;20064;-79
2023/11/23 11:55:39;;;;;;;8.65;7.63;;;6.10;99.90;;;;;;6255900;28;20521;-79
2023/11/23 11:58:40;;;;;;;7.63;5.90;;;6.10;99.90;;;;;;6255303;28;20508;-80
2023/11/23 12:01:43;;;;;;;7.97;7.05;;;6.10;99.90;;;;;;6258816;28;20502;-80
2023/11/23 12:04:46;;;;;;;6.38;5.65;;;6.10;99.90;;;;;;6246491;28;20053;-79
2023/11/23 12:07:53;;;;;;;10.38;6.28;;;6.10;99.90;;;;;;6255789;28;20132;-79
2023/11/23 12:10:56;;;;;;;6.68;5.38;;;6.10;99.90;;;;;;6260084;28;20503;-79
2023/11/23 12:13:58;;;;;;;9.77;6.40;;;6.10;99.90;;;;;;6247797;28;20053;-79
2023/11/23 12:17:08;;;;;;;9.18;7.25;;;6.20;99.90;;;;;;6261554;28;20051;-79
2023/11/23 12:20:12;;;;;;;7.05;5.72;;;6.20;99.90;;;;;;6228153;28;20455;-79
2023/11/23 12:23:14;;;;;;;7.53;6.47;;;6.20;99.90;;;;;;6249814;28;20711;-80
2023/11/23 12:26:15;;;;;;;9.00;5.72;;;6.30;99.90;;;;;;6249227;28;20118;-80
2023/11/23 12:29:22;;;;;;;6.35;5.18;;;6.30;99.90;;;;;;6245689;28;20149;-80
2023/11/23 12:32:24;;;;;;;8.00;5.80;;;6.40;99.90;;;;;;6245687;28;20053;-80
2023/11/23 12:35:27;;;;;;;11.30;6.72;;;6.40;99.90;;;;;;6263803;28;20045;-80
2023/11/23 12:38:29;;;;;;;7.18;5.60;;;6.40;99.90;;;;;;6256894;28;20049;-81
2023/11/23 12:41:30;;;;;;;7.82;6.72;;;6.50;99.90;;;;;;6247595;28;20041;-79
2023/11/23 12:44:35;;;;;;;7.47;4.47;;;6.50;99.90;;;;;;6252372;28;20071;-79
2023/11/23 12:47:37;;;;;;;9.63;5.57;;;6.40;99.90;;;;;;6253644;28;20049;-80
2023/11/23 12:50:40;;;;;;;10.25;5.85;;;6.40;99.90;;;;;;6249329;28;20050;-84
2023/11/23 12:53:42;;;;;;;6.53;5.43;;;6.40;99.90;;;;;;6257528;28;20036;-80
2023/11/23 12:56:44;;;;;;;10.15;6.50;;;6.40;99.90;;;;;;6278562;28;20549;-79
2023/11/23 12:59:46;;;;;;;44.22;23.38;;;6.40;99.90;;;;;;6275224;22;20045;-79
2023/11/23 13:02:47;;;;;;;173.77;81.97;;;6.40;99.90;;;;;;6252428;28;20045;-80
2023/11/23 13:05:52;;;;;;;12.48;7.85;;;6.40;99.90;;;;;;6253357;28;20509;-80
2023/11/23 13:08:55;;;;;;;15.00;10.52;;;6.40;99.90;;;;;;6254799;28;20049;-79
2023/11/23 13:11:58;;;;;;;148.73;67.95;;;6.50;99.90;;;;;;6256463;28;20122;-81
2023/11/23 13:14:59;;;;;;;57.30;28.80;;;6.50;99.90;;;;;;6253080;28;20434;-81
2023/11/23 13:18:02;;;;;;;12.25;7.75;;;6.50;99.90;;;;;;6254161;28;20051;-81
2023/11/23 13:21:05;;;;;;;8.02;5.88;;;6.60;99.90;;;;;;6254685;28;20095;-79
2023/11/23 13:24:08;;;;;;;25.00;16.38;;;6.60;99.90;;;;;;6255443;28;20056;-80
2023/11/23 13:27:11;;;;;;;7.43;5.70;;;6.60;99.90;;;;;;6246694;28;20119;-80
2023/11/23 13:30:14;;;;;;;40.70;27.75;;;6.60;99.90;;;;;;6253852;28;20152;-80
2023/11/23 13:33:22;;;;;;;36.72;26.48;;;6.60;99.90;;;;;;6255643;28;20051;-79
2023/11/23 13:36:25;;;;;;;10.13;7.38;;;6.60;99.90;;;;;;6256024;28;20128;-82
2023/11/23 13:39:28;;;;;;;27.80;17.58;;;6.60;99.90;;;;;;6266933;28;20096;-81
2023/11/23 13:42:30;;;;;;;22.65;12.45;;;6.60;99.90;;;;;;6275727;28;20093;-81
2023/11/23 13:45:31;;;;;;;8.65;6.65;;;6.60;99.90;;;;;;6260208;28;20049;-81
2023/11/23 13:48:33;;;;;;;8.35;6.95;;;6.60;99.90;;;;;;6258048;28;20052;-81
2023/11/23 13:51:36;;;;;;;13.07;7.25;;;6.60;99.90;;;;;;6259945;28;20051;-81
2023/11/23 13:54:38;;;;;;;7.40;6.05;;;6.50;99.90;;;;;;6256237;28;20056;-81
2023/11/23 13:57:39;;;;;;;9.27;6.68;;;6.50;99.90;;;;;;6257851;28;20124;-82
2023/11/23 14:00:41;;;;;;;7.25;6.18;;;6.60;99.90;;;;;;6238619;28;20053;-81
2023/11/23 14:03:43;;;;;;;10.85;8.18;;;6.60;99.90;;;;;;6246012;28;20064;-81
2023/11/23 14:06:47;;;;;;;9.30;6.70;;;6.50;99.90;;;;;;6242434;28;20053;-81
2023/11/23 14:09:49;;;;;;;8.68;6.15;;;6.50;99.90;;;;;;6242868;28;20042;-80
2023/11/23 14:12:51;;;;;;;8.65;6.50;;;6.50;99.90;;;;;;6242747;28;20042;-81
2023/11/23 14:15:53;;;;;;;9.98;6.63;;;6.50;99.90;;;;;;6240863;28;20049;-79
2023/11/23 14:18:56;;;;;;;7.90;7.03;;;6.50;99.90;;;;;;6246074;28;20046;-80
2023/11/23 14:22:00;;;;;;;8.10;6.32;;;6.50;99.90;;;;;;6244918;28;20045;-81
2023/11/23 14:25:03;;;;;;;9.30;7.18;;;6.50;99.90;;;;;;6243717;28;20586;-82
2023/11/23 14:28:05;;;;;;;11.38;7.00;;;6.50;99.90;;;;;;6241650;28;20595;-81
2023/11/23 14:31:11;;;;;;;9.27;7.47;;;6.50;99.90;;;;;;6243673;28;20059;-81
2023/11/23 14:34:12;;;;;;;9.75;8.60;;;6.50;99.90;;;;;;6245215;28;20042;-82
2023/11/23 14:37:15;;;;;;;11.52;8.70;;;6.50;99.90;;;;;;6244986;28;20052;-80
2023/11/23 14:40:18;;;;;;;15.35;7.85;;;6.50;99.90;;;;;;6243243;28;20374;-80
2023/11/23 14:43:21;;;;;;;9.98;7.70;;;6.50;99.90;;;;;;6241902;28;20045;-82
2023/11/23 14:46:23;;;;;;;11.70;7.75;;;6.50;99.90;;;;;;6251624;28;20120;-78
2023/11/23 14:49:25;;;;;;;10.82;7.20;;;6.50;99.90;;;;;;6254199;28;20137;-77
2023/11/23 14:52:28;;;;;;;9.48;8.35;;;6.60;99.90;;;;;;6241825;28;20045;-80
2023/11/23 14:55:30;;;;;;;9.43;6.68;;;6.60;99.90;;;;;;6241857;28;20053;-80
2023/11/23 14:58:32;;;;;;;8.85;6.78;;;6.60;99.90;;;;;;6237324;28;20065;-78
2023/11/23 15:01:35;;;;;;;8.57;6.32;;;6.60;99.90;;;;;;6240136;28;20130;-79
2023/11/23 15:04:37;;;;;;;8.88;6.65;;;6.60;99.90;;;;;;6237247;28;20060;-81
2023/11/23 15:07:40;;;;;;;7.18;6.45;;;6.60;99.90;;;;;;6242240;28;20058;-79
2023/11/23 15:10:42;;;;;;;35.85;24.00;;;6.70;99.90;;;;;;6242274;28;20041;-79
2023/11/23 15:13:46;;;;;;;11.15;8.48;;;6.70;99.90;;;;;;6238897;28;20045;-79
2023/11/23 15:16:51;;;;;;;7.88;5.75;;;6.70;99.90;;;;;;6241820;28;20176;-79
2023/11/23 15:19:52;;;;;;;13.55;6.70;;;6.70;99.90;;;;;;6241617;28;20584;-79
2023/11/23 15:22:55;;;;;;;16.05;12.85;;;6.80;99.90;;;;;;6241912;28;20065;-79
2023/11/23 15:25:58;;;;;;;9.27;8.38;;;;;;;;;;6240383;28;20052;-77
2023/11/23 15:29:01;;;;;;;4.70;3.90;;;;;;;;;;6234417;28;20053;-78
2023/11/23 15:32:03;;;;;;;7.32;4.53;;;12.70;62.10;;;;;;6238370;28;20060;-80
2023/11/23 15:35:07;;;;;;;6.97;4.97;;;11.60;56.70;;;;;;6240038;28;20045;-80
2023/11/23 15:38:10;;;;;;;6.60;4.88;;;8.20;72.30;;;;;;6239736;28;20052;-81
2023/11/23 15:41:12;;;;;;;6.65;5.40;;;7.70;76.80;;;;;;6237640;28;20041;-79
2023/11/23 15:44:14;;;;;;;6.28;4.50;;;7.60;79.30;;;;;;6239839;28;20046;-80